Time,TemperatureF,DewpointF,PressureIn,WindDirection,WindDirectionDegrees,WindSpeedMPH,WindSpeedGustMPH,Humidity,HourlyPrecipIn,Conditions,Clouds,dailyrainin,SoftwareType,DateUTC
2013-04-22 00:00:00,35.6,11.9,30.68,NNW,340,0.0,0.0,37,0.00,,,0.00,Wunderground v.1.15,2013-04-22 04:00:00,
2013-04-22 00:10:00,35.8,13.8,30.68,NNW,340,0.0,0.0,40,0.00,,,0.00,Wunderground v.1.15,2013-04-22 04:10:00,
2013-04-22 00:20:00,35.2,12.7,30.68,NNW,340,0.0,0.0,39,0.00,,,0.00,Wunderground v.1.15,2013-04-22 04:20:00,
2013-04-22 00:30:00,33.8,12.0,30.69,NNW,340,0.0,0.0,40,0.00,,,0.00,Wunderground v.1.15,2013-04-22 04:30:00,
2013-04-22 00:40:00,34.0,13.8,30.69,NNW,340,0.0,0.0,43,0.00,,,0.00,Wunderground v.1.15,2013-04-22 04:40:00,
2013-04-22 00:50:00,33.1,13.0,30.69,NNW,340,0.0,0.0,43,0.00,,,0.00,Wunderground v.1.15,2013-04-22 04:50:00,
2013-04-22 01:00:00,32.2,13.2,30.69,NNW,340,0.0,1.0,45,0.00,,,0.00,Wunderground v.1.15,2013-04-22 05:00:00,
2013-04-22 01:10:00,32.1,14.6,30.69,NNW,340,0.0,0.0,48,0.00,,,0.00,Wunderground v.1.15,2013-04-22 05:10:00,
2013-04-22 01:20:00,32.8,13.2,30.68,NNW,340,0.0,0.0,44,0.00,,,0.00,Wunderground v.1.15,2013-04-22 05:20:00,
2013-04-22 01:30:00,31.9,13.4,30.68,NNW,340,0.0,0.0,46,0.00,,,0.00,Wunderground v.1.15,2013-04-22 05:30:00,
2013-04-22 01:40:00,32.5,13.0,30.68,NNW,340,0.0,0.0,44,0.00,,,0.00,Wunderground v.1.15,2013-04-22 05:40:00,
2013-04-22 01:50:00,31.3,17.0,30.69,NNW,340,0.0,0.0,55,0.00,,,0.00,Wunderground v.1.15,2013-04-22 05:50:00,
2013-04-22 02:00:00,31.5,14.5,30.69,NNW,340,0.0,0.0,49,0.00,,,0.00,Wunderground v.1.15,2013-04-22 06:00:00,
2013-04-22 02:10:00,32.2,14.2,30.69,NNW,340,0.0,0.0,47,0.00,,,0.00,Wunderground v.1.15,2013-04-22 06:10:00,
2013-04-22 02:20:00,31.3,15.2,30.69,NNW,340,0.0,0.0,51,0.00,,,0.00,Wunderground v.1.15,2013-04-22 06:20:00,
2013-04-22 02:30:00,31.2,15.6,30.69,NNW,340,0.0,0.0,52,0.00,,,0.00,Wunderground v.1.15,2013-04-22 06:30:00,
2013-04-22 02:40:00,31.3,14.8,30.69,NNW,340,0.0,0.0,50,0.00,,,0.00,Wunderground v.1.15,2013-04-22 06:40:00,
2013-04-22 02:50:00,31.2,14.2,30.70,NNW,340,0.0,0.0,49,0.00,,,0.00,Wunderground v.1.15,2013-04-22 06:50:00,
2013-04-22 03:00:00,30.7,14.2,30.70,NNW,340,0.0,0.0,50,0.00,,,0.00,Wunderground v.1.15,2013-04-22 07:00:00,
2013-04-22 03:10:00,30.4,13.5,30.70,NNW,340,0.0,0.0,49,0.00,,,0.00,Wunderground v.1.15,2013-04-22 07:10:00,
2013-04-22 03:20:00,29.7,14.2,30.70,NNW,340,0.0,0.0,52,0.00,,,0.00,Wunderground v.1.15,2013-04-22 07:20:00,
2013-04-22 03:30:00,29.8,13.9,30.71,NNW,340,0.0,0.0,51,0.00,,,0.00,Wunderground v.1.15,2013-04-22 07:30:00,
2013-04-22 03:40:00,30.4,13.5,30.71,NNW,340,0.0,0.0,49,0.00,,,0.00,Wunderground v.1.15,2013-04-22 07:40:00,
2013-04-22 03:50:00,30.7,13.3,30.72,NNW,340,0.0,0.0,48,0.00,,,0.00,Wunderground v.1.15,2013-04-22 07:50:00,
2013-04-22 04:00:00,30.3,13.9,30.72,NNW,340,0.0,1.0,50,0.00,,,0.00,Wunderground v.1.15,2013-04-22 08:00:00,
2013-04-22 04:10:00,30.7,13.8,30.72,NNW,340,0.0,0.0,49,0.00,,,0.00,Wunderground v.1.15,2013-04-22 08:10:00,
2013-04-22 04:20:00,30.7,13.3,30.72,NNW,340,0.0,0.0,48,0.00,,,0.00,Wunderground v.1.15,2013-04-22 08:20:00,
2013-04-22 04:30:00,30.7,13.3,30.72,NNW,340,0.0,0.0,48,0.00,,,0.00,Wunderground v.1.15,2013-04-22 08:30:00,
2013-04-22 04:40:00,30.3,13.4,30.72,NNW,340,0.0,0.0,49,0.00,,,0.00,Wunderground v.1.15,2013-04-22 08:40:00,
2013-04-22 04:50:00,30.1,13.2,30.72,NNW,340,0.0,0.0,49,0.00,,,0.00,Wunderground v.1.15,2013-04-22 08:50:00,
2013-04-22 05:00:00,30.1,13.7,30.72,NNW,340,0.0,0.0,50,0.00,,,0.00,Wunderground v.1.15,2013-04-22 09:00:00,
2013-04-22 05:10:00,30.1,13.2,30.72,NNW,340,0.0,0.0,49,0.00,,,0.00,Wunderground v.1.15,2013-04-22 09:10:00,
2013-04-22 05:20:00,30.3,12.9,30.73,NNW,340,0.0,0.0,48,0.00,,,0.00,Wunderground v.1.15,2013-04-22 09:20:00,
2013-04-22 05:30:00,30.3,12.9,30.73,NNW,340,0.0,0.0,48,0.00,,,0.00,Wunderground v.1.15,2013-04-22 09:30:00,
2013-04-22 05:40:00,30.4,13.5,30.73,NNW,340,0.0,0.0,49,0.00,,,0.00,Wunderground v.1.15,2013-04-22 09:40:00,
2013-04-22 05:50:00,30.4,14.0,30.73,NNW,340,0.0,0.0,50,0.00,,,0.00,Wunderground v.1.15,2013-04-22 09:50:00,
2013-04-22 06:00:00,30.4,14.0,30.75,NNW,340,0.0,0.0,50,0.00,,,0.00,Wunderground v.1.15,2013-04-22 10:00:00,
2013-04-22 06:10:00,30.3,14.3,30.75,NNW,340,0.0,0.0,51,0.00,,,0.00,Wunderground v.1.15,2013-04-22 10:10:00,
2013-04-22 06:20:00,30.6,14.6,30.75,NNW,340,0.0,0.0,51,0.00,,,0.00,Wunderground v.1.15,2013-04-22 10:20:00,
2013-04-22 06:30:00,31.2,15.2,30.75,NNW,340,0.0,0.0,51,0.00,,,0.00,Wunderground v.1.15,2013-04-22 10:30:00,
2013-04-22 06:40:00,32.1,15.1,30.76,NNW,340,0.0,0.0,49,0.00,,,0.00,Wunderground v.1.15,2013-04-22 10:40:00,
2013-04-22 06:50:00,34.1,16.4,30.76,NNW,340,0.0,0.0,48,0.00,,,0.00,Wunderground v.1.15,2013-04-22 10:50:00,
2013-04-22 07:00:00,35.2,17.0,30.77,NNW,340,1.0,1.0,47,0.00,,,0.00,Wunderground v.1.15,2013-04-22 11:00:00,
2013-04-22 07:10:00,35.8,16.5,30.77,NNW,340,1.0,1.0,45,0.00,,,0.00,Wunderground v.1.15,2013-04-22 11:10:00,
2013-04-22 07:20:00,36.0,16.2,30.77,NE,34,1.0,3.0,44,0.00,,,0.00,Wunderground v.1.15,2013-04-22 11:20:00,
2013-04-22 07:30:00,36.0,17.2,30.78,NNE,33,3.0,3.0,46,0.00,,,0.00,Wunderground v.1.15,2013-04-22 11:30:00,
2013-04-22 07:40:00,36.6,17.2,30.78,NNE,23,4.0,5.0,45,0.00,,,0.00,Wunderground v.1.15,2013-04-22 11:40:00,
2013-04-22 07:50:00,36.9,15.9,30.78,NNE,32,3.0,4.0,42,0.00,,,0.00,Wunderground v.1.15,2013-04-22 11:50:00,
2013-04-22 08:00:00,37.5,17.0,30.79,NNE,26,4.0,4.0,43,0.00,,,0.00,Wunderground v.1.15,2013-04-22 12:00:00,
2013-04-22 08:10:00,38.0,16.4,30.79,NNE,27,4.0,6.0,41,0.00,,,0.00,Wunderground v.1.15,2013-04-22 12:10:00,
2013-04-22 08:20:00,38.6,16.3,30.80,ENE,59,6.0,6.0,40,0.00,,,0.00,Wunderground v.1.15,2013-04-22 12:20:00,
2013-04-22 08:30:00,39.3,16.4,30.79,NE,56,5.0,5.0,39,0.00,,,0.00,Wunderground v.1.15,2013-04-22 12:30:00,
2013-04-22 08:40:00,39.8,16.8,30.79,NE,46,5.0,5.0,39,0.00,,,0.00,Wunderground v.1.15,2013-04-22 12:40:00,
2013-04-22 08:50:00,40.5,15.0,30.78,NNE,25,5.0,5.0,35,0.00,,,0.00,Wunderground v.1.15,2013-04-22 12:50:00,
2013-04-22 09:00:00,40.5,12.2,30.78,NNE,26,6.0,10.0,31,0.00,,,0.00,Wunderground v.1.15,2013-04-22 13:00:00,
2013-04-22 09:10:00,41.2,12.8,30.78,ENE,70,7.0,7.0,31,0.00,,,0.00,Wunderground v.1.15,2013-04-22 13:10:00,
2013-04-22 09:20:00,41.6,13.9,30.78,ENE,72,6.0,6.0,32,0.00,,,0.00,Wunderground v.1.15,2013-04-22 13:20:00,
2013-04-22 09:30:00,41.9,13.4,30.78,NNE,14,8.0,8.0,31,0.00,,,0.00,Wunderground v.1.15,2013-04-22 13:30:00,
2013-04-22 09:40:00,41.9,12.7,30.78,NE,34,8.0,11.0,30,0.00,,,0.00,Wunderground v.1.15,2013-04-22 13:40:00,
2013-04-22 09:50:00,42.1,12.8,30.78,NE,34,8.0,12.0,30,0.00,,,0.00,Wunderground v.1.15,2013-04-22 13:50:00,
2013-04-22 10:00:00,42.2,14.4,30.78,North,11,8.0,10.0,32,0.00,,,0.00,Wunderground v.1.15,2013-04-22 14:00:00,
2013-04-22 10:10:00,42.6,14.0,30.78,NNE,23,10.0,10.0,31,0.00,,,0.00,Wunderground v.1.15,2013-04-22 14:10:00,
2013-04-22 10:20:00,42.9,16.4,30.77,ENE,64,8.0,8.0,34,0.00,,,0.00,Wunderground v.1.15,2013-04-22 14:20:00,
2013-04-22 10:30:00,42.9,15.7,30.78,ENE,63,10.0,10.0,33,0.00,,,0.00,Wunderground v.1.15,2013-04-22 14:30:00,
2013-04-22 10:40:00,42.8,14.2,30.78,NNE,32,9.0,9.0,31,0.00,,,0.00,Wunderground v.1.15,2013-04-22 14:40:00,
2013-04-22 10:50:00,42.9,14.3,30.77,NNE,33,9.0,9.0,31,0.00,,,0.00,Wunderground v.1.15,2013-04-22 14:50:00,
2013-04-22 11:00:00,43.5,15.5,30.78,East,90,7.0,12.0,32,0.00,,,0.00,Wunderground v.1.15,2013-04-22 15:00:00,
2013-04-22 11:10:00,43.2,16.7,30.78,East,80,8.0,9.0,34,0.00,,,0.00,Wunderground v.1.15,2013-04-22 15:10:00,
2013-04-22 11:20:00,43.5,15.5,30.79,ESE,116,8.0,9.0,32,0.00,,,0.00,Wunderground v.1.15,2013-04-22 15:20:00,
2013-04-22 11:30:00,44.2,16.2,30.79,SE,143,8.0,9.0,32,0.00,,,0.00,Wunderground v.1.15,2013-04-22 15:30:00,
2013-04-22 11:40:00,44.3,17.7,30.79,ENE,72,7.0,8.0,34,0.00,,,0.00,Wunderground v.1.15,2013-04-22 15:40:00,
2013-04-22 11:50:00,44.1,16.1,30.80,East,89,9.0,11.0,32,0.00,,,0.00,Wunderground v.1.15,2013-04-22 15:50:00,
2013-04-22 12:00:00,44.5,19.8,30.80,East,80,8.0,14.0,37,0.00,,,0.00,Wunderground v.1.15,2013-04-22 16:00:00,
2013-04-22 12:10:00,44.5,21.0,30.79,ENE,68,9.0,10.0,39,0.00,,,0.00,Wunderground v.1.15,2013-04-22 16:10:00,
2013-04-22 12:20:00,43.9,15.2,30.79,East,99,10.0,10.0,31,0.00,,,0.00,Wunderground v.1.15,2013-04-22 16:20:00,
2013-04-22 12:30:00,44.6,19.3,30.78,ESE,110,7.0,9.0,36,0.00,,,0.00,Wunderground v.1.15,2013-04-22 16:30:00,
2013-04-22 12:40:00,44.3,19.0,30.78,East,100,7.0,9.0,36,0.00,,,0.00,Wunderground v.1.15,2013-04-22 16:40:00,
2013-04-22 12:50:00,44.5,15.7,30.77,East,98,8.0,8.0,31,0.00,,,0.00,Wunderground v.1.15,2013-04-22 16:50:00,
2013-04-22 13:00:00,44.6,20.5,30.76,ESE,122,7.0,10.0,38,0.00,,,0.00,Wunderground v.1.15,2013-04-22 17:00:00,
2013-04-22 13:10:00,45.1,19.0,30.76,SE,131,8.0,10.0,35,0.00,,,0.00,Wunderground v.1.15,2013-04-22 17:10:00,
2013-04-22 13:20:00,44.8,21.9,30.76,ENE,77,7.0,7.0,40,0.00,,,0.00,Wunderground v.1.15,2013-04-22 17:20:00,
2013-04-22 13:30:00,44.9,21.4,30.75,East,83,7.0,7.0,39,0.00,,,0.00,Wunderground v.1.15,2013-04-22 17:30:00,
2013-04-22 13:40:00,45.2,21.7,30.75,SE,143,7.0,9.0,39,0.00,,,0.00,Wunderground v.1.15,2013-04-22 17:40:00,
2013-04-22 13:50:00,44.9,23.7,30.75,ESE,112,8.0,8.0,43,0.00,,,0.00,Wunderground v.1.15,2013-04-22 17:50:00,
2013-04-22 14:00:00,44.9,22.0,30.74,East,81,7.0,7.0,40,0.00,,,0.00,Wunderground v.1.15,2013-04-22 18:00:00,
2013-04-22 14:10:00,45.2,25.1,30.74,East,98,9.0,9.0,45,0.00,,,0.00,Wunderground v.1.15,2013-04-22 18:10:00,
2013-04-22 14:20:00,44.9,26.4,30.75,ENE,74,8.0,8.0,48,0.00,,,0.00,Wunderground v.1.15,2013-04-22 18:20:00,
2013-04-22 14:30:00,45.5,27.4,30.75,ESE,107,7.0,13.0,49,0.00,,,0.00,Wunderground v.1.15,2013-04-22 18:30:00,
2013-04-22 14:40:00,45.2,25.6,30.75,ESE,118,8.0,8.0,46,0.00,,,0.00,Wunderground v.1.15,2013-04-22 18:40:00,
2013-04-22 14:50:00,44.8,23.6,30.74,ESE,107,9.0,11.0,43,0.00,,,0.00,Wunderground v.1.15,2013-04-22 18:50:00,
2013-04-22 15:00:00,44.6,25.1,30.74,SE,128,9.0,12.0,46,0.00,,,0.00,Wunderground v.1.15,2013-04-22 19:00:00,
2013-04-22 15:10:00,44.3,29.1,30.74,ESE,105,9.0,9.0,55,0.00,,,0.00,Wunderground v.1.15,2013-04-22 19:10:00,
2013-04-22 15:20:00,44.3,32.5,30.74,ESE,110,9.0,11.0,63,0.00,,,0.00,Wunderground v.1.15,2013-04-22 19:20:00,
2013-04-22 15:30:00,43.8,32.4,30.73,East,88,8.0,8.0,64,0.00,,,0.00,Wunderground v.1.15,2013-04-22 19:30:00,
2013-04-22 15:40:00,43.8,33.9,30.73,SSE,153,7.0,12.0,68,0.00,,,0.00,Wunderground v.1.15,2013-04-22 19:40:00,
2013-04-22 15:50:00,42.8,32.6,30.72,East,101,8.0,8.0,67,0.00,,,0.00,Wunderground v.1.15,2013-04-22 19:50:00,
2013-04-22 16:00:00,42.2,33.1,30.72,East,82,8.0,8.0,70,0.00,,,0.00,Wunderground v.1.15,2013-04-22 20:00:00,
2013-04-22 16:10:00,42.5,32.7,30.72,East,84,8.0,8.0,68,0.00,,,0.00,Wunderground v.1.15,2013-04-22 20:10:00,
2013-04-22 16:20:00,42.9,32.7,30.71,East,81,9.0,9.0,67,0.00,,,0.00,Wunderground v.1.15,2013-04-22 20:20:00,
2013-04-22 16:30:00,43.2,32.2,30.72,SSE,150,7.0,7.0,65,0.00,,,0.00,Wunderground v.1.15,2013-04-22 20:30:00,
2013-04-22 16:40:00,42.3,32.5,30.72,SE,134,7.0,7.0,68,0.00,,,0.00,Wunderground v.1.15,2013-04-22 20:40:00,
2013-04-22 16:50:00,42.6,32.8,30.71,SE,127,7.0,10.0,68,0.00,,,0.00,Wunderground v.1.15,2013-04-22 20:50:00,
2013-04-22 17:00:00,41.9,32.1,30.71,SE,124,8.0,8.0,68,0.00,,,0.00,Wunderground v.1.15,2013-04-22 21:00:00,
2013-04-22 17:10:00,41.9,31.4,30.72,ESE,103,7.0,10.0,66,0.00,,,0.00,Wunderground v.1.15,2013-04-22 21:10:00,
2013-04-22 17:20:00,42.2,30.9,30.72,East,100,5.0,7.0,64,0.00,,,0.00,Wunderground v.1.15,2013-04-22 21:20:00,
2013-04-22 17:30:00,41.3,30.4,30.72,East,86,7.0,7.0,65,0.00,,,0.00,Wunderground v.1.15,2013-04-22 21:30:00,
2013-04-22 17:40:00,41.1,30.2,30.72,ESE,118,6.0,6.0,65,0.00,,,0.00,Wunderground v.1.15,2013-04-22 21:40:00,
2013-04-22 17:50:00,40.8,29.9,30.72,ESE,107,5.0,5.0,65,0.00,,,0.00,Wunderground v.1.15,2013-04-22 21:50:00,
2013-04-22 18:00:00,40.6,30.9,30.72,SE,126,4.0,4.0,68,0.00,,,0.00,Wunderground v.1.15,2013-04-22 22:00:00,
2013-04-22 18:10:00,40.3,30.6,30.71,SE,136,3.0,6.0,68,0.00,,,0.00,Wunderground v.1.15,2013-04-22 22:10:00,
2013-04-22 18:20:00,39.8,30.1,30.71,SE,139,5.0,5.0,68,0.00,,,0.00,Wunderground v.1.15,2013-04-22 22:20:00,
2013-04-22 18:30:00,39.6,29.5,30.70,SE,124,4.0,4.0,67,0.00,,,0.00,Wunderground v.1.15,2013-04-22 22:30:00,
2013-04-22 18:40:00,39.5,28.7,30.70,East,101,4.0,4.0,65,0.00,,,0.00,Wunderground v.1.15,2013-04-22 22:40:00,
2013-04-22 18:50:00,39.2,29.2,30.70,ESE,105,3.0,3.0,67,0.00,,,0.00,Wunderground v.1.15,2013-04-22 22:50:00,
2013-04-22 19:00:00,38.8,29.1,30.70,SE,144,2.0,2.0,68,0.00,,,0.00,Wunderground v.1.15,2013-04-22 23:00:00,
2013-04-22 19:10:00,38.3,29.0,30.70,SE,144,1.0,1.0,69,0.00,,,0.00,Wunderground v.1.15,2013-04-22 23:10:00,
2013-04-22 19:20:00,38.0,29.1,30.70,SE,144,2.0,2.0,70,0.00,,,0.00,Wunderground v.1.15,2013-04-22 23:20:00,
2013-04-22 19:30:00,37.5,28.9,30.70,SE,144,2.0,2.0,71,0.00,,,0.00,Wunderground v.1.15,2013-04-22 23:30:00,
2013-04-22 19:40:00,37.2,28.7,30.70,SE,144,2.0,2.0,71,0.00,,,0.00,Wunderground v.1.15,2013-04-22 23:40:00,
2013-04-22 19:50:00,36.8,28.3,30.70,SE,137,1.0,1.0,71,0.00,,,0.00,Wunderground v.1.15,2013-04-22 23:50:00,
2013-04-22 20:00:00,36.8,28.6,30.70,SE,137,2.0,3.0,72,0.00,,,0.00,Wunderground v.1.15,2013-04-23 00:00:00,
2013-04-22 20:10:00,36.6,28.8,30.70,SE,137,1.0,1.0,73,0.00,,,0.00,Wunderground v.1.15,2013-04-23 00:10:00,
2013-04-22 20:20:00,36.3,28.8,30.70,SE,137,1.0,3.0,74,0.00,,,0.00,Wunderground v.1.15,2013-04-23 00:20:00,
2013-04-22 20:30:00,36.2,29.0,30.70,SE,137,1.0,1.0,75,0.00,,,0.00,Wunderground v.1.15,2013-04-23 00:30:00,
2013-04-22 20:40:00,35.9,29.1,30.70,SE,138,1.0,2.0,76,0.00,,,0.00,Wunderground v.1.15,2013-04-23 00:40:00,
2013-04-22 20:50:00,35.6,28.8,30.70,SE,138,1.0,3.0,76,0.00,,,0.00,Wunderground v.1.15,2013-04-23 00:50:00,
2013-04-22 21:00:00,35.5,29.3,30.70,SE,138,1.0,1.0,78,0.00,,,0.00,Wunderground v.1.15,2013-04-23 01:00:00,
2013-04-22 21:10:00,35.5,29.6,30.70,SE,138,2.0,2.0,79,0.00,,,0.00,Wunderground v.1.15,2013-04-23 01:10:00,
2013-04-22 21:20:00,35.5,29.6,30.70,SE,140,2.0,3.0,79,0.00,,,0.00,Wunderground v.1.15,2013-04-23 01:20:00,
2013-04-22 21:30:00,35.3,29.1,30.71,SE,139,1.0,1.0,78,0.00,,,0.00,Wunderground v.1.15,2013-04-23 01:30:00,
2013-04-22 21:40:00,35.2,29.0,30.71,SE,140,1.0,1.0,78,0.00,,,0.00,Wunderground v.1.15,2013-04-23 01:40:00,
2013-04-22 21:50:00,34.4,28.6,30.70,SE,140,0.0,0.0,79,0.00,,,0.00,Wunderground v.1.15,2013-04-23 01:50:00,
2013-04-22 22:00:00,33.7,28.2,30.69,SE,140,0.0,0.0,80,0.00,,,0.00,Wunderground v.1.15,2013-04-23 02:00:00,
2013-04-22 22:10:00,32.9,27.7,30.69,SE,140,0.0,0.0,81,0.00,,,0.00,Wunderground v.1.15,2013-04-23 02:10:00,
2013-04-22 22:20:00,31.8,27.5,30.69,SE,140,0.0,0.0,84,0.00,,,0.00,Wunderground v.1.15,2013-04-23 02:20:00,
2013-04-22 22:30:00,31.6,29.0,30.69,WSW,245,0.0,0.0,90,0.00,,,0.00,Wunderground v.1.15,2013-04-23 02:30:00,
2013-04-22 22:40:00,31.6,29.0,30.69,West,263,0.0,0.0,90,0.00,,,0.00,Wunderground v.1.15,2013-04-23 02:40:00,
2013-04-22 22:50:00,31.5,29.2,30.67,West,263,0.0,0.0,91,0.00,,,0.00,Wunderground v.1.15,2013-04-23 02:50:00,
2013-04-22 23:00:00,31.7,29.1,30.67,West,263,0.0,0.0,90,0.00,,,0.00,Wunderground v.1.15,2013-04-23 03:00:00,
2013-04-22 23:10:00,31.5,28.9,30.67,West,277,0.0,0.0,90,0.00,,,0.00,Wunderground v.1.15,2013-04-23 03:10:00,
2013-04-22 23:20:00,31.6,29.0,30.67,West,277,0.0,0.0,90,0.00,,,0.00,Wunderground v.1.15,2013-04-23 03:20:00,
2013-04-22 23:30:00,31.9,29.0,30.67,WNW,285,0.0,0.0,89,0.00,,,0.00,Wunderground v.1.15,2013-04-23 03:30:00,
2013-04-22 23:40:00,32.0,28.6,30.67,WNW,295,0.0,0.0,87,0.00,,,0.00,Wunderground v.1.15,2013-04-23 03:40:00,
2013-04-22 23:50:00,31.9,29.0,30.66,WNW,302,0.0,0.0,89,0.00,,,0.00,Wunderground v.1.15,2013-04-23 03:50:00,